Time;durP1;ratioP1;P1;durP2;ratioP2;P2;SDS_P1;SDS_P2;PMS_P1;PMS_P2;Temp;Humidity;BMP_temperature;BMP_pressure;BME280_temperature;BME280_humidity;BME280_pressure;Samples;Min_cycle;Max_cycle;Signal;HPM_P1;HPM_P2
2021/07/23 00:01:18;;;;;;;1.20;1.10;;;;;;;18.38;57.23;99050.47;5071983;28;43171;-76
2021/07/23 00:03:48;;;;;;;3.20;2.20;;;;;;;18.35;57.38;99050.72;5070962;28;42932;-78
2021/07/23 00:06:16;;;;;;;2.40;1.03;;;;;;;18.34;57.07;99055.25;5068292;28;43042;-75
2021/07/23 00:08:43;;;;;;;1.67;1.33;;;;;;;18.30;57.32;99048.47;5052271;28;40922;-78
2021/07/23 00:11:11;;;;;;;1.20;0.90;;;;;;;18.27;57.80;99054.97;5069541;28;42681;-78
2021/07/23 00:13:39;;;;;;;1.93;1.70;;;;;;;18.22;57.83;99051.00;5051933;28;43150;-75
2021/07/23 00:16:07;;;;;;;3.73;1.10;;;;;;;18.19;58.00;99048.59;5082162;28;42363;-78
2021/07/23 00:18:35;;;;;;;2.10;1.67;;;;;;;18.15;58.12;99049.88;5071337;28;40165;-77
2021/07/23 00:21:04;;;;;;;2.00;1.17;;;;;;;18.09;58.55;99043.22;5089396;28;43813;-77
2021/07/23 00:23:32;;;;;;;3.27;1.37;;;;;;;18.11;58.34;99045.78;5054383;28;41921;-78
2021/07/23 00:26:00;;;;;;;1.30;1.13;;;;;;;18.07;58.56;99036.31;5054545;28;42194;-78
2021/07/23 00:28:27;;;;;;;1.43;1.30;;;;;;;18.05;59.31;99032.94;5072100;28;41817;-78
2021/07/23 00:30:56;;;;;;;2.07;1.03;;;;;;;18.03;59.04;99040.28;5071407;28;41832;-76
2021/07/23 00:33:24;;;;;;;3.23;1.80;;;;;;;17.95;58.96;99038.25;5070948;28;43486;-77
2021/07/23 00:35:52;;;;;;;1.60;1.20;;;;;;;17.96;58.94;99039.97;5053283;28;41501;-76
2021/07/23 00:38:21;;;;;;;1.97;1.13;;;;;;;17.91;59.17;99042.22;5053900;28;39836;-77
2021/07/23 00:40:50;;;;;;;2.07;1.57;;;;;;;17.88;59.34;99050.53;5055293;28;42058;-75
2021/07/23 00:43:18;;;;;;;1.67;1.10;;;;;;;17.83;59.81;99050.94;5072207;28;43755;-77
2021/07/23 00:45:46;;;;;;;2.67;1.30;;;;;;;17.79;59.73;99051.34;5054124;28;42466;-76
2021/07/23 00:48:14;;;;;;;1.53;1.20;;;;;;;17.75;60.13;99050.78;5054706;28;39918;-75
2021/07/23 00:50:44;;;;;;;1.40;1.03;;;;;;;17.72;60.23;99052.88;5054029;28;41647;-75
2021/07/23 00:53:12;;;;;;;1.20;1.10;;;;;;;17.63;60.12;99034.91;5071360;28;43054;-76
2021/07/23 00:55:44;;;;;;;2.00;1.37;;;;;;;17.66;60.04;99048.06;5069975;28;41488;-78
2021/07/23 00:58:12;;;;;;;2.53;0.80;;;;;;;17.63;60.02;99048.31;5070833;28;40248;-78
2021/07/23 01:00:41;;;;;;;2.07;1.67;;;;;;;17.63;60.24;99048.31;5053568;28;41054;-75
2021/07/23 01:03:09;;;;;;;1.20;1.10;;;;;;;17.60;60.26;99047.59;5051526;28;41762;-77
2021/07/23 01:05:37;;;;;;;1.40;1.30;;;;;;;17.58;60.62;99040.66;5068482;28;42262;-76
2021/07/23 01:08:07;;;;;;;1.10;0.80;;;;;;;17.56;60.72;99043.47;5054481;28;38821;-75
2021/07/23 01:10:39;;;;;;;0.97;0.80;;;;;;;17.51;60.51;99040.38;5070519;28;41816;-75
2021/07/23 01:13:17;;;;;;;1.47;0.97;;;;;;;17.49;61.01;99036.13;5053765;28;42657;-76
2021/07/23 01:15:47;;;;;;;1.60;1.20;;;;;;;17.45;61.50;99029.34;5050439;28;42669;-77
2021/07/23 01:18:16;;;;;;;1.27;0.90;;;;;;;17.44;61.30;99033.84;5050901;28;39825;-76
2021/07/23 01:20:52;;;;;;;1.37;0.80;;;;;;;17.40;61.22;99035.09;5058044;28;40540;-77
2021/07/23 01:23:28;;;;;;;1.63;1.00;;;;;;;17.36;61.34;99036.34;5070496;28;41771;-76
2021/07/23 01:25:59;;;;;;;2.27;1.00;;;;;;;17.33;61.35;99036.59;5071060;28;42128;-78
2021/07/23 01:28:32;;;;;;;1.43;1.33;;;;;;;17.29;61.11;99040.56;5054172;28;40268;-78
2021/07/23 01:31:05;;;;;;;2.03;1.63;;;;;;;17.25;61.05;99033.75;5045126;28;41738;-77
2021/07/23 01:33:38;;;;;;;2.57;1.43;;;;;;;17.20;61.50;99035.97;5068359;28;43890;-78
2021/07/23 01:36:09;;;;;;;0.87;0.70;;;;;;;17.15;61.27;99039.06;5034603;28;41110;-77
2021/07/23 01:38:47;;;;;;;2.77;1.23;;;;;;;17.12;61.61;99038.47;5044727;28;39234;-78
2021/07/23 01:41:16;;;;;;;1.27;1.10;;;;;;;17.10;61.39;99032.41;5070335;28;42722;-76
2021/07/23 01:43:46;;;;;;;1.97;1.10;;;;;;;17.07;61.42;99036.19;5070130;28;43581;-78
2021/07/23 01:46:14;;;;;;;1.77;1.00;;;;;;;17.04;61.76;99035.63;5070283;28;42606;-78
2021/07/23 01:48:41;;;;;;;1.97;1.33;;;;;;;17.00;61.44;99034.19;5088577;28;40075;-77
2021/07/23 01:51:29;;;;;;;2.27;1.10;;;;;;;16.99;61.37;99035.16;5069458;28;41561;-75
2021/07/23 01:53:59;;;;;;;1.93;0.93;;;;;;;16.96;61.62;99033.59;5070774;28;45361;-76
2021/07/23 01:56:30;;;;;;;2.77;1.37;;;;;;;16.93;61.52;99036.56;5070936;28;42327;-77
2021/07/23 01:59:01;;;;;;;2.27;1.30;;;;;;;16.90;61.60;99038.63;5056371;28;39633;-77
2021/07/23 02:01:34;;;;;;;1.83;1.37;;;;;;;16.86;61.73;99038.91;5070924;28;41614;-79
2021/07/23 02:04:22;;;;;;;1.50;1.20;;;;;;;16.83;62.23;99032.94;5052685;28;42850;-75
2021/07/23 02:06:52;;;;;;;1.77;1.10;;;;;;;16.81;62.23;99029.59;5064965;28;42436;-75
2021/07/23 02:09:23;;;;;;;1.97;1.33;;;;;;;16.78;62.61;99027.16;5090541;28;40882;-78
2021/07/23 02:11:55;;;;;;;1.33;1.07;;;;;;;16.75;62.52;99017.56;5056758;28;40821;-77
2021/07/23 02:14:29;;;;;;;1.27;1.07;;;;;;;16.73;62.70;99021.34;5056644;28;41716;-77
2021/07/23 02:16:57;;;;;;;2.80;1.50;;;;;;;16.71;62.58;99023.28;5073373;28;43035;-78
2021/07/23 02:19:26;;;;;;;1.73;1.00;;;;;;;16.68;62.59;99013.72;5073187;28;38985;-78
2021/07/23 02:22:05;;;;;;;1.53;1.10;;;;;;;16.65;62.60;99022.00;5056508;28;40688;-77
2021/07/23 02:24:35;;;;;;;1.53;1.30;;;;;;;16.65;62.55;99024.69;5073168;28;42169;-76
2021/07/23 02:27:03;;;;;;;2.23;1.57;;;;;;;16.64;62.37;99022.97;5058691;28;41279;-76
2021/07/23 02:29:30;;;;;;;1.13;0.90;;;;;;;16.63;62.44;99021.28;5073603;28;40207;-77
2021/07/23 02:31:59;;;;;;;3.67;1.40;;;;;;;16.61;62.53;99023.19;5056810;28;40583;-76
2021/07/23 02:34:29;;;;;;;1.57;1.13;;;;;;;16.59;62.48;99016.28;5055394;28;42137;-76
2021/07/23 02:36:58;;;;;;;1.47;1.17;;;;;;;16.54;62.55;99008.66;5073969;28;41466;-78
2021/07/23 02:39:26;;;;;;;1.50;0.87;;;;;;;16.52;62.74;99014.13;5073399;28;39873;-79
2021/07/23 02:42:04;;;;;;;2.13;1.67;;;;;;;16.47;63.00;98999.44;5056485;28;40677;-77
2021/07/23 02:44:38;;;;;;;1.70;1.07;;;;;;;16.48;63.04;99003.81;5052436;28;43142;-78
2021/07/23 02:47:09;;;;;;;0.77;0.77;;;;;;;16.46;62.91;99009.28;5053177;28;42602;-76
2021/07/23 02:49:37;;;;;;;1.87;1.00;;;;;;;16.45;62.91;99012.09;5036511;28;38999;-77
2021/07/23 02:52:05;;;;;;;2.17;1.73;;;;;;;16.42;62.58;99004.34;5036147;28;40838;-78
2021/07/23 02:54:35;;;;;;;1.00;0.90;;;;;;;16.32;62.58;98990.88;5052111;28;41727;-77
2021/07/23 02:57:05;;;;;;;1.53;1.10;;;;;;;16.39;62.46;99004.59;5073804;28;42209;-77
2021/07/23 02:59:40;;;;;;;1.57;1.00;;;;;;;16.39;62.60;99001.94;5069312;28;41038;-78
2021/07/23 03:02:11;;;;;;;1.40;1.10;;;;;;;16.37;63.17;98998.53;5053100;28;42045;-75
2021/07/23 03:04:39;;;;;;;1.47;1.03;;;;;;;16.35;63.47;98995.13;5052850;28;41897;-77
2021/07/23 03:07:07;;;;;;;1.93;1.27;;;;;;;16.32;63.16;98992.75;5035884;28;41207;-76
2021/07/23 03:09:36;;;;;;;1.43;1.30;;;;;;;16.31;63.23;98988.38;5064402;28;40019;-75
2021/07/23 03:12:08;;;;;;;3.23;1.93;;;;;;;16.27;63.36;98997.63;5073065;28;42055;-78
2021/07/23 03:14:41;;;;;;;1.53;1.20;;;;;;;16.23;63.46;98991.66;5071963;28;43638;-75
2021/07/23 03:17:17;;;;;;;2.60;1.50;;;;;;;16.20;63.52;98996.41;5072094;28;42369;-78
2021/07/23 03:19:45;;;;;;;1.43;1.33;;;;;;;16.16;63.62;98993.16;5072417;28;40159;-77
2021/07/23 03:22:15;;;;;;;1.23;1.13;;;;;;;16.12;63.80;98989.91;5055390;28;41979;-78
2021/07/23 03:24:44;;;;;;;2.30;1.40;;;;;;;16.10;63.93;98991.84;5055221;28;41970;-77
2021/07/23 03:27:24;;;;;;;2.83;1.00;;;;;;;16.03;63.72;98969.28;5055120;28;42506;-76
2021/07/23 03:30:12;;;;;;;2.30;1.20;;;;;;;16.09;63.92;98979.44;5072997;28;40698;-75
2021/07/23 03:32:40;;;;;;;1.33;1.10;;;;;;;16.03;64.06;98974.63;5072585;28;42170;-78
2021/07/23 03:35:09;;;;;;;3.47;1.47;;;;;;;16.10;64.21;98981.16;5073056;28;42813;-75
2021/07/23 03:37:42;;;;;;;1.63;1.43;;;;;;;16.11;64.01;98982.00;5071591;28;42961;-78
2021/07/23 03:40:20;;;;;;;1.50;1.27;;;;;;;16.09;64.42;98978.59;5072762;28;40185;-76
2021/07/23 03:42:50;;;;;;;2.00;1.63;;;;;;;16.01;64.43;98965.91;5091155;28;41795;-74
2021/07/23 03:45:20;;;;;;;2.80;1.10;;;;;;;16.07;64.17;98981.41;5055329;28;42047;-75
2021/07/23 03:48:00;;;;;;;1.73;1.40;;;;;;;16.08;64.77;98982.25;5072236;28;42274;-75
2021/07/23 03:50:31;;;;;;;2.60;1.10;;;;;;;16.06;64.29;98985.06;5089927;28;41887;-75
2021/07/23 03:53:00;;;;;;;2.07;1.30;;;;;;;16.05;64.32;98975.38;5072294;28;40983;-75
2021/07/23 03:55:46;;;;;;;1.60;1.27;;;;;;;16.03;64.13;98985.31;5090040;28;42835;-75
2021/07/23 03:58:25;;;;;;;1.10;1.00;;;;;;;16.05;64.71;98980.72;5055431;28;41553;-77
2021/07/23 04:00:54;;;;;;;2.43;1.53;;;;;;;16.04;64.35;98979.00;5072015;28;40264;-76
2021/07/23 04:03:21;;;;;;;2.00;1.27;;;;;;;16.04;64.29;98981.69;5067858;28;40814;-77
2021/07/23 04:05:50;;;;;;;1.33;1.13;;;;;;;16.04;64.25;98975.50;5090600;28;43005;-75
2021/07/23 04:08:25;;;;;;;2.23;1.13;;;;;;;16.04;64.43;98981.69;5054860;28;41734;-76
2021/07/23 04:10:53;;;;;;;1.83;1.47;;;;;;;16.06;64.46;98979.72;5054794;28;38934;-75
2021/07/23 04:13:23;;;;;;;3.20;1.23;;;;;;;16.08;64.41;98975.09;5048461;28;40643;-76
2021/07/23 04:15:52;;;;;;;0.70;0.70;;;;;;;16.11;64.41;98977.50;5054294;28;41848;-74
2021/07/23 04:18:21;;;;;;;1.73;1.17;;;;;;;16.13;64.32;98980.91;5071608;28;42242;-75
2021/07/23 04:21:04;;;;;;;0.90;0.80;;;;;;;16.13;64.16;98975.56;5053961;28;39088;-74
2021/07/23 04:23:33;;;;;;;1.00;0.77;;;;;;;16.24;64.34;98988.03;5054553;28;41399;-77
2021/07/23 04:26:01;;;;;;;1.37;1.20;;;;;;;16.25;64.46;98984.38;5089640;28;43611;-76
2021/07/23 04:28:33;;;;;;;0.87;0.87;;;;;;;16.32;64.25;98990.06;5054904;28;42552;-78
2021/07/23 04:31:02;;;;;;;3.57;1.30;;;;;;;16.41;64.27;98994.63;5070848;28;40109;-76
2021/07/23 04:33:44;;;;;;;1.50;0.90;;;;;;;16.47;63.99;98997.63;5071067;28;40893;-79
2021/07/23 04:36:30;;;;;;;1.47;1.20;;;;;;;16.57;64.11;99000.38;5090325;28;43099;-77
2021/07/23 04:39:03;;;;;;;1.40;1.13;;;;;;;16.63;64.45;98994.53;5071821;28;42692;-75
2021/07/23 04:41:33;;;;;;;1.50;1.20;;;;;;;16.77;63.96;99006.75;5071359;28;40146;-77
2021/07/23 04:44:01;;;;;;;1.30;1.10;;;;;;;16.76;64.04;98989.84;5070699;28;41810;-78
2021/07/23 04:46:33;;;;;;;2.80;1.70;;;;;;;17.00;64.35;99002.09;5071840;28;42053;-79
2021/07/23 04:49:01;;;;;;;1.90;1.23;;;;;;;17.10;64.08;98998.47;5071080;28;42084;-78
2021/07/23 04:51:37;;;;;;;1.20;0.90;;;;;;;17.20;64.16;98998.50;5054045;28;39076;-75
2021/07/23 04:54:37;;;;;;;2.77;1.77;;;;;;;17.34;64.06;99011.53;5044392;28;42308;-74
2021/07/23 04:57:44;;;;;;;2.20;1.43;;;;;;;17.48;64.29;99002.28;5010303;28;42100;-75
2021/07/23 05:00:14;;;;;;;1.13;0.90;;;;;;;17.58;63.95;99009.38;5041175;28;41684;-73
2021/07/23 05:02:44;;;;;;;1.23;1.13;;;;;;;17.68;64.07;99000.56;5070726;28;40349;-77
2021/07/23 05:05:14;;;;;;;1.70;1.60;;;;;;;17.76;64.09;98996.22;5087180;28;41040;-77
2021/07/23 05:07:42;;;;;;;1.60;1.30;;;;;;;17.81;64.03;98998.47;5053383;28;42263;-75
2021/07/23 05:10:12;;;;;;;2.33;1.20;;;;;;;17.80;64.15;98988.75;5070403;28;41265;-77
2021/07/23 05:12:42;;;;;;;2.13;1.43;;;;;;;17.96;64.46;99002.44;5069579;28;39728;-73
2021/07/23 05:15:12;;;;;;;2.77;2.03;;;;;;;18.11;63.78;99001.06;5080384;28;41763;-74
2021/07/23 05:17:41;;;;;;;2.07;1.50;;;;;;;18.23;63.52;98994.56;5069458;28;41914;-77
2021/07/23 05:20:10;;;;;;;1.37;1.10;;;;;;;18.35;63.51;99002.47;5069918;28;41347;-76
2021/07/23 05:22:39;;;;;;;1.30;1.20;;;;;;;18.46;63.29;99005.00;5069969;28;38853;-76
2021/07/23 05:25:09;;;;;;;2.67;1.70;;;;;;;18.54;62.98;99005.16;5069810;28;42090;-76
2021/07/23 05:27:37;;;;;;;1.80;1.20;;;;;;;18.54;63.12;99002.47;5070366;28;43066;-76
2021/07/23 05:30:06;;;;;;;2.10;1.17;;;;;;;18.53;63.28;99007.00;5069471;28;41253;-76
2021/07/23 05:32:33;;;;;;;1.50;1.17;;;;;;;18.56;63.38;99006.69;5070296;28;41029;-74
2021/07/23 05:35:00;;;;;;;2.20;1.17;;;;;;;18.61;63.03;99003.63;5073611;28;41723;-76
2021/07/23 05:37:32;;;;;;;2.37;1.70;;;;;;;18.71;63.05;99008.97;5057340;28;43112;-75
2021/07/23 05:40:00;;;;;;;1.67;1.37;;;;;;;18.83;62.72;99013.19;5053998;28;41576;-74
2021/07/23 05:42:28;;;;;;;1.40;1.30;;;;;;;18.98;62.54;99011.75;5069263;28;40206;-77
2021/07/23 05:44:56;;;;;;;1.40;0.93;;;;;;;19.01;62.54;98996.22;5054413;28;42720;-76
2021/07/23 05:47:27;;;;;;;2.63;1.47;;;;;;;19.08;62.55;98983.03;5035167;28;42071;-75
2021/07/23 05:49:54;;;;;;;1.63;1.53;;;;;;;19.34;61.87;99002.00;5045342;28;43090;-73
2021/07/23 05:52:22;;;;;;;2.17;1.43;;;;;;;19.45;61.54;98999.13;5073214;28;39963;-73
2021/07/23 05:54:51;;;;;;;2.13;1.30;;;;;;;19.58;61.56;99005.03;5054884;28;40507;-74
2021/07/23 05:57:19;;;;;;;2.03;1.50;;;;;;;19.70;60.91;99003.00;5059108;28;42082;-72
2021/07/23 05:59:46;;;;;;;3.73;1.43;;;;;;;19.82;60.67;98998.25;5078876;28;42445;-74
2021/07/23 06:02:14;;;;;;;3.47;1.80;;;;;;;19.93;60.04;98998.06;5069159;28;39091;-72
2021/07/23 06:04:42;;;;;;;1.90;1.60;;;;;;;20.01;59.77;98998.16;5088572;28;41809;-73
2021/07/23 06:07:09;;;;;;;2.83;1.80;;;;;;;20.12;59.18;98997.94;5075285;28;43855;-72
2021/07/23 06:09:37;;;;;;;2.37;1.80;;;;;;;20.22;59.73;99004.06;5072615;28;43291;-73
2021/07/23 06:12:08;;;;;;;2.43;1.57;;;;;;;20.38;59.17;99004.28;5091711;28;39931;-74
2021/07/23 06:14:36;;;;;;;2.07;1.80;;;;;;;20.52;58.77;99010.13;5071936;28;40743;-72
2021/07/23 06:17:04;;;;;;;1.40;1.23;;;;;;;20.64;58.68;99006.19;5090336;28;41912;-74
2021/07/23 06:19:31;;;;;;;2.63;1.60;;;;;;;20.75;58.77;99001.38;5083879;28;42403;-75
2021/07/23 06:21:59;;;;;;;2.77;1.80;;;;;;;20.92;58.14;99009.56;5056908;28;39890;-76
2021/07/23 06:24:27;;;;;;;2.27;1.57;;;;;;;21.12;57.45;99003.81;5091416;28;41826;-75
2021/07/23 06:26:54;;;;;;;2.17;1.20;;;;;;;21.31;57.33;98999.25;5090797;28;42740;-75
2021/07/23 06:29:24;;;;;;;1.80;1.40;;;;;;;21.40;57.58;99000.97;5085765;28;41372;-77
2021/07/23 06:31:52;;;;;;;2.13;1.40;;;;;;;21.51;56.79;99003.41;5072715;28;38739;-75
2021/07/23 06:34:26;;;;;;;3.30;1.87;;;;;;;21.63;56.66;98999.41;5067378;28;40621;-74
2021/07/23 06:36:54;;;;;;;2.60;1.87;;;;;;;21.75;56.30;99008.03;5090611;28;42723;-76
2021/07/23 06:39:22;;;;;;;1.60;1.50;;;;;;;21.84;56.86;98982.78;5072359;28;42303;-76
2021/07/23 06:41:49;;;;;;;3.37;2.27;;;;;;;22.02;56.49;98998.84;5091907;28;39744;-78
2021/07/23 06:44:19;;;;;;;3.33;2.13;;;;;;;22.11;55.84;99000.59;5070930;28;41870;-74
2021/07/23 06:46:52;;;;;;;2.63;1.60;;;;;;;22.19;55.99;98998.75;5090018;28;43752;-75
2021/07/23 06:49:19;;;;;;;3.17;2.00;;;;;;;22.35;55.67;99007.88;5084363;28;42644;-75
2021/07/23 06:51:47;;;;;;;2.60;1.70;;;;;;;22.55;55.38;99001.97;5069031;28;41046;-75
2021/07/23 06:54:15;;;;;;;2.83;2.00;;;;;;;22.94;54.67;99009.41;5084837;28;41894;-76
2021/07/23 06:56:43;;;;;;;2.93;2.10;;;;;;;23.27;54.10;99013.75;5053683;28;41701;-77
2021/07/23 06:59:10;;;;;;;2.93;2.53;;;;;;;23.54;52.53;99019.78;5090059;28;42492;-74
2021/07/23 07:01:38;;;;;;;3.20;2.10;;;;;;;23.69;51.68;99018.03;5072977;28;39293;-74
2021/07/23 07:04:07;;;;;;;3.07;1.53;;;;;;;23.83;51.36;99027.28;5067034;28;42056;-75
2021/07/23 07:06:35;;;;;;;2.57;2.10;;;;;;;24.00;52.24;99018.88;5052526;28;42850;-73
2021/07/23 07:09:03;;;;;;;2.47;1.57;;;;;;;24.24;50.97;99027.91;5054483;28;42617;-76
2021/07/23 07:11:31;;;;;;;3.47;1.80;;;;;;;24.48;50.86;99022.34;5069554;28;40867;-73
2021/07/23 07:13:59;;;;;;;2.23;2.03;;;;;;;24.62;50.30;99024.25;5055655;28;41985;-79
2021/07/23 07:16:27;;;;;;;4.77;2.53;;;;;;;24.62;50.22;99005.31;5080258;28;42853;-78
2021/07/23 07:18:55;;;;;;;3.37;2.07;;;;;;;24.91;49.90;99022.69;5072242;28;43172;-76
2021/07/23 07:21:24;;;;;;;2.80;1.87;;;;;;;25.00;49.83;99021.59;5090558;28;39597;-77
2021/07/23 07:23:52;;;;;;;2.63;1.90;;;;;;;25.16;48.47;99015.19;5090147;28;41752;-76
2021/07/23 07:26:20;;;;;;;3.80;2.37;;;;;;;25.38;47.33;99033.25;5088508;28;42045;-74
2021/07/23 07:28:48;;;;;;;3.50;2.60;;;;;;;25.79;46.80;99040.97;5071811;28;41368;-73
2021/07/23 07:31:16;;;;;;;3.67;2.77;;;;;;;26.28;45.69;99025.72;5071933;28;40010;-74
2021/07/23 07:33:44;;;;;;;3.97;2.90;;;;;;;27.09;44.24;99037.19;5071521;28;40622;-77
2021/07/23 07:36:17;;;;;;;3.57;2.77;;;;;;;28.19;41.89;99062.59;5071993;28;42769;-79
2021/07/23 07:38:46;;;;;;;3.67;2.60;;;;;;;29.29;39.88;99053.16;5088234;28;42834;-78
2021/07/23 07:41:16;;;;;;;5.30;3.53;;;;;;;30.50;36.60;99081.63;5072460;28;39858;-77
2021/07/23 07:43:44;;;;;;;3.83;2.83;;;;;;;31.87;34.65;99085.44;5053164;28;41726;-78
2021/07/23 07:46:12;;;;;;;4.37;3.33;;;;;;;32.67;33.59;99097.09;5084915;28;42899;-77
2021/07/23 07:48:40;;;;;;;4.70;2.93;;;;;;;32.40;33.62;99097.47;5089664;28;43242;-80
2021/07/23 07:51:08;;;;;;;4.37;3.47;;;;;;;32.01;34.98;99092.47;5071996;28;40296;-81
2021/07/23 07:53:36;;;;;;;4.13;3.13;;;;;;;31.48;34.34;99087.50;5053768;28;40721;-79
2021/07/23 07:56:08;;;;;;;3.60;2.70;;;;;;;31.12;35.99;99076.44;5088662;28;43713;-83
2021/07/23 07:58:36;;;;;;;3.73;2.83;;;;;;;31.01;36.05;99073.34;5087678;28;41159;-83
2021/07/23 08:01:06;;;;;;;4.40;3.43;;;;;;;31.39;35.42;99080.63;5082570;28;41032;-80
2021/07/23 08:03:33;;;;;;;3.30;2.97;;;;;;;32.24;32.67;99092.63;5053251;28;41093;-79
2021/07/23 08:06:06;;;;;;;4.87;3.10;;;;;;;33.00;32.68;99089.28;5054799;28;41851;-77
2021/07/23 08:08:35;;;;;;;4.20;3.00;;;;;;;33.60;32.24;99086.38;5054389;28;41097;-78
2021/07/23 08:11:02;;;;;;;3.87;2.70;;;;;;;33.29;30.95;99086.72;5089543;28;41148;-76
2021/07/23 08:13:37;;;;;;;5.17;3.40;;;;;;;32.73;32.05;99096.22;5050347;28;42092;-77
2021/07/23 08:16:06;;;;;;;3.93;2.83;;;;;;;31.89;32.95;99084.16;5068660;28;43169;-76
2021/07/23 08:18:35;;;;;;;3.87;2.80;;;;;;;31.43;34.26;99069.00;5051409;28;41097;-77
2021/07/23 08:21:04;;;;;;;4.07;3.23;;;;;;;31.42;34.99;99050.88;5071057;28;39247;-76
2021/07/23 08:23:33;;;;;;;4.30;3.17;;;;;;;31.72;34.15;99070.22;5070508;28;41931;-76
2021/07/23 08:26:04;;;;;;;3.30;3.00;;;;;;;31.69;33.86;99069.81;5089577;28;43750;-82
2021/07/23 08:28:32;;;;;;;4.30;3.07;;;;;;;31.62;33.59;99060.81;5071799;28;43406;-79
2021/07/23 08:31:01;;;;;;;4.30;3.40;;;;;;;31.88;34.10;99051.53;5054909;28;38938;-82
2021/07/23 08:33:30;;;;;;;4.27;3.07;;;;;;;32.42;34.55;99045.97;5082942;28;42846;-81
2021/07/23 08:35:58;;;;;;;3.23;2.73;;;;;;;33.09;32.64;99057.66;5068901;28;43469;-88
2021/07/23 08:38:38;;;;;;;4.07;2.87;;;;;;;33.35;32.16;99012.47;5052670;28;41555;-91
2021/07/23 08:42:03;;;;;;;3.33;2.77;;;;;;;34.41;31.49;99074.47;5054750;28;39144;-90
2021/07/23 08:44:32;;;;;;;4.30;3.90;;;;;;;35.72;29.26;99088.09;5054428;28;41640;-79
2021/07/23 08:47:03;;;;;;;3.60;2.80;;;;;;;37.10;26.37;99099.72;5057676;28;41789;-78
2021/07/23 08:49:30;;;;;;;4.43;3.45;;;;;;;38.35;25.04;99112.84;5070315;28;42249;-78
2021/07/23 08:51:58;;;;;;;3.00;2.72;;;;;;;39.72;23.39;99115.06;5087955;28;41995;-79
2021/07/23 08:54:26;;;;;;;3.80;3.47;;;;;;;40.89;21.80;99124.69;5070798;28;41970;-79
2021/07/23 08:56:53;;;;;;;3.60;3.25;;;;;;;41.75;20.99;99103.75;5088527;28;44067;-79
2021/07/23 08:59:21;;;;;;;4.00;3.60;;;;;;;42.81;20.64;99137.88;5070914;28;41180;-79
2021/07/23 09:01:58;;;;;;;4.53;3.75;;;;;;;43.45;20.73;99125.22;5054905;28;39961;-80
2021/07/23 09:04:32;;;;;;;3.08;2.78;;;;;;;43.53;20.45;99118.94;5050661;28;42002;-77
2021/07/23 09:07:32;;;;;;;3.67;2.78;;;;;;;42.04;21.36;99111.28;5067390;28;41906;-77
2021/07/23 09:10:06;;;;;;;3.17;2.83;;;;;;;40.45;22.65;99090.47;5027264;28;41497;-81
2021/07/23 09:12:44;;;;;;;3.92;3.40;;;;;;;39.22;24.15;99077.09;5087935;28;39011;-77
2021/07/23 09:15:20;;;;;;;4.88;3.78;;;;;;;38.36;24.56;99077.69;5069631;28;40665;-75
2021/07/23 09:17:55;;;;;;;4.30;3.47;;;;;;;37.90;26.30;99063.63;5065874;28;41923;-79
2021/07/23 09:20:42;;;;;;;4.20;3.50;;;;;;;37.26;26.36;99060.97;5050043;28;42315;-79
2021/07/23 09:23:10;;;;;;;3.50;3.20;;;;;;;37.07;27.34;99034.00;5086584;28;39003;-79
2021/07/23 09:25:39;;;;;;;4.87;2.83;;;;;;;36.94;26.92;99052.69;5087526;28;40830;-77
2021/07/23 09:28:25;;;;;;;3.17;2.87;;;;;;;36.47;27.74;99019.34;5069617;28;43716;-75
2021/07/23 09:30:53;;;;;;;3.00;2.70;;;;;;;36.48;28.50;99032.00;5082266;28;43056;-77
2021/07/23 09:33:37;;;;;;;3.60;3.20;;;;;;;36.66;27.56;99036.34;5071288;28;39917;-77
2021/07/23 09:36:09;;;;;;;2.93;2.53;;;;;;;36.88;27.39;99036.31;5067077;28;41983;-76
2021/07/23 09:38:38;;;;;;;4.50;3.10;;;;;;;36.79;26.97;99044.25;5070808;28;42000;-79
2021/07/23 09:41:10;;;;;;;3.90;3.07;;;;;;;36.26;26.43;99039.50;5087039;28;43101;-80
2021/07/23 09:43:40;;;;;;;2.60;2.23;;;;;;;35.61;27.47;99037.47;5053693;28;41394;-75
2021/07/23 09:46:29;;;;;;;3.30;3.00;;;;;;;35.19;29.48;99013.16;5070004;28;41991;-78
2021/07/23 09:48:59;;;;;;;3.40;2.90;;;;;;;34.99;28.51;99026.56;5070455;28;42876;-77
2021/07/23 09:51:30;;;;;;;2.70;2.50;;;;;;;35.05;29.77;99017.31;5067894;28;43311;-81
2021/07/23 09:53:58;;;;;;;2.80;2.53;;;;;;;35.37;28.50;99013.97;5070488;28;39609;-79
2021/07/23 09:56:27;;;;;;;3.80;2.97;;;;;;;36.19;27.43;99025.06;5070040;28;41068;-78
2021/07/23 09:59:10;;;;;;;3.67;3.20;;;;;;;37.65;26.28;99035.84;5088073;28;42935;-78
2021/07/23 10:01:41;;;;;;;3.50;3.23;;;;;;;39.03;23.91;99043.56;5086854;28;42276;-77
2021/07/23 10:04:19;;;;;;;3.17;2.73;;;;;;;40.07;23.05;99045.63;5088270;28;40358;-82
2021/07/23 10:06:57;;;;;;;3.53;2.77;;;;;;;40.39;22.94;99049.97;5068707;28;41676;-80
2021/07/23 10:09:30;;;;;;;2.80;2.57;;;;;;;39.98;22.74;99044.56;5066480;28;43183;-76
2021/07/23 10:11:59;;;;;;;3.17;2.83;;;;;;;39.71;23.40;99030.19;5069130;28;43246;-80
2021/07/23 10:14:28;;;;;;;2.93;2.60;;;;;;;39.24;23.67;99025.81;5052941;28;38958;-79
2021/07/23 10:16:56;;;;;;;2.57;2.37;;;;;;;38.72;24.13;99015.81;5067001;28;42009;-81
2021/07/23 10:19:25;;;;;;;2.95;2.65;;;;;;;38.66;24.04;99022.47;5052010;28;42924;-84
2021/07/23 10:22:07;;;;;;;2.50;2.30;;;;;;;38.91;23.25;99031.91;5055318;28;41481;-77
2021/07/23 10:24:37;;;;;;;3.67;3.00;;;;;;;39.38;23.25;99015.84;5073220;28;39820;-81
2021/07/23 10:27:06;;;;;;;2.35;2.03;;;;;;;39.82;23.56;99016.00;5074182;28;42045;-78
2021/07/23 10:29:47;;;;;;;2.97;2.67;;;;;;;40.37;23.01;99016.13;5085803;28;42926;-80
2021/07/23 10:32:30;;;;;;;3.25;2.95;;;;;;;41.07;21.11;99013.97;5091520;28;42975;-78
2021/07/23 10:34:59;;;;;;;2.78;2.58;;;;;;;41.01;21.04;99012.34;5079820;28;41146;-82
2021/07/23 10:37:52;;;;;;;2.35;2.15;;;;;;;40.72;21.97;99002.03;5092234;28;42194;-80
2021/07/23 10:40:21;;;;;;;4.70;2.65;;;;;;;40.24;22.06;98986.19;5055726;28;43196;-87
2021/07/23 10:42:58;;;;;;;3.03;2.77;;;;;;;39.69;22.20;98999.97;5073816;28;41361;-80
2021/07/23 10:45:45;;;;;;;3.10;2.78;;;;;;;38.73;22.44;98959.31;5090797;28;40276;-83
2021/07/23 10:48:59;;;;;;;2.67;2.47;;;;;;;38.21;22.82;98956.72;5090841;28;41968;-84
2021/07/23 10:51:46;;;;;;;3.20;2.73;;;;;;;37.50;24.14;98983.22;5070322;28;43141;-85
2021/07/23 10:54:17;;;;;;;2.77;2.37;;;;;;;36.72;25.31;98973.78;5041912;28;41584;-84
2021/07/23 10:57:18;;;;;;;3.00;2.50;;;;;;;36.61;27.01;98947.97;5048939;28;38893;-83
2021/07/23 10:59:50;;;;;;;2.70;2.50;;;;;;;36.31;26.31;98946.63;4986971;28;40676;-82
2021/07/23 11:02:43;;;;;;;3.20;2.63;;;;;;;36.48;26.76;98949.25;4995023;28;41729;-79
2021/07/23 11:05:18;;;;;;;2.73;2.53;;;;;;;36.71;26.14;98952.81;5053860;28;42035;-77
2021/07/23 11:07:47;;;;;;;3.27;2.67;;;;;;;37.02;25.69;98957.47;5091230;28;40203;-78
2021/07/23 11:10:23;;;;;;;2.90;2.60;;;;;;;36.94;27.70;98941.41;5073090;28;40973;-77
2021/07/23 11:12:51;;;;;;;3.77;2.57;;;;;;;37.17;27.05;98941.03;5073526;28;42003;-82
2021/07/23 11:15:19;;;;;;;6.23;2.70;;;;;;;37.46;26.93;98937.88;5069145;28;43270;-81
2021/07/23 11:17:59;;;;;;;3.10;2.73;;;;;;;37.34;26.94;98916.81;5091262;28;40753;-88
2021/07/23 11:20:37;;;;;;;2.80;2.50;;;;;;;37.54;27.71;98935.44;5056062;28;40711;-82
2021/07/23 11:23:06;;;;;;;3.57;2.73;;;;;;;37.76;25.36;98935.28;5072902;28;42715;-85
2021/07/23 11:25:35;;;;;;;3.20;2.87;;;;;;;38.06;24.25;98954.75;5050640;28;42169;-81
2021/07/23 11:28:05;;;;;;;2.87;2.10;;;;;;;38.22;26.20;98929.91;5073585;28;41868;-85
2021/07/23 11:30:36;;;;;;;2.90;2.47;;;;;;;38.44;25.14;98944.34;5069238;28;41458;-85
2021/07/23 11:33:06;;;;;;;2.63;2.37;;;;;;;37.97;25.12;98938.94;5064174;28;42233;-79
2021/07/23 11:35:41;;;;;;;3.23;2.57;;;;;;;37.79;26.94;98929.22;5052397;28;41197;-81
2021/07/23 11:38:12;;;;;;;2.67;2.47;;;;;;;37.70;25.80;98928.09;5065608;28;40278;-82
2021/07/23 11:40:41;;;;;;;4.03;3.07;;;;;;;37.48;27.46;98919.09;5068249;28;41026;-80
2021/07/23 11:43:19;;;;;;;2.80;2.37;;;;;;;37.42;27.06;98914.66;5080848;28;42818;-82
2021/07/23 11:45:48;;;;;;;2.70;2.50;;;;;;;37.58;25.00;98902.56;5087430;28;41992;-90
2021/07/23 11:48:17;;;;;;;4.07;2.83;;;;;;;37.27;25.37;98919.00;5055364;28;38959;-77
2021/07/23 11:50:52;;;;;;;3.10;2.43;;;;;;;36.85;26.23;98915.34;5055649;28;42212;-85
2021/07/23 11:53:20;;;;;;;2.97;2.27;;;;;;;37.40;26.49;98904.69;5047165;28;42038;-84
2021/07/23 11:55:51;;;;;;;2.83;2.60;;;;;;;38.26;25.35;98898.66;5064060;28;42437;-85